createdAt,value
2023-04-05T00:00:44.477Z,-2.03
2023-04-05T00:03:12.798Z,-2.05
2023-04-05T00:05:40.099Z,-2.06
2023-04-05T00:08:13.479Z,-2.10
2023-04-05T00:10:41.065Z,-2.18
2023-04-05T00:13:08.954Z,-2.30
2023-04-05T00:15:36.199Z,-2.39
2023-04-05T00:18:03.960Z,-2.39
2023-04-05T00:20:31.177Z,-2.30
2023-04-05T00:22:58.779Z,-2.28
2023-04-05T00:25:26.310Z,-2.26
2023-04-05T00:27:53.479Z,-2.24
2023-04-05T00:30:23.996Z,-2.29
2023-04-05T00:32:51.623Z,-2.22
2023-04-05T00:35:20.427Z,-2.18
2023-04-05T00:37:47.681Z,-2.18
2023-04-05T00:40:14.899Z,-2.18
2023-04-05T00:42:42.419Z,-2.21
2023-04-05T00:45:10.153Z,-2.23
2023-04-05T00:47:37.825Z,-2.23
2023-04-05T00:50:07.298Z,-2.18
2023-04-05T00:52:34.987Z,-2.27
2023-04-05T00:55:02.680Z,-2.35
2023-04-05T00:57:30.356Z,-2.44
2023-04-05T01:00:00.561Z,-2.62
2023-04-05T01:02:39.379Z,-2.60
2023-04-05T01:05:42.342Z,-2.61
2023-04-05T01:08:36.311Z,-2.63
2023-04-05T01:11:06.458Z,-2.70
2023-04-05T01:13:34.091Z,-2.78
2023-04-05T01:16:01.631Z,-2.88
2023-04-05T01:18:33.015Z,-2.98
2023-04-05T01:21:34.178Z,-3.19
2023-04-05T01:24:21.031Z,-2.96
2023-04-05T01:27:48.564Z,-2.89
2023-04-05T01:30:24.438Z,-3.09
2023-04-05T01:33:27.077Z,-3.24
2023-04-05T01:36:08.948Z,-3.26
2023-04-05T01:38:40.670Z,-3.36
2023-04-05T01:41:07.969Z,-3.44
2023-04-05T01:43:35.134Z,-3.45
2023-04-05T01:46:02.475Z,-3.44
2023-04-05T01:48:31.251Z,-3.48
2023-04-05T01:51:00.104Z,-3.55
2023-04-05T01:53:27.467Z,-3.57
2023-04-05T01:55:54.832Z,-3.61
2023-04-05T01:58:22.176Z,-3.60
2023-04-05T02:00:49.463Z,-3.58
2023-04-05T02:03:16.706Z,-3.65
2023-04-05T02:05:43.973Z,-3.70
2023-04-05T02:08:11.350Z,-3.60
2023-04-05T02:10:38.895Z,-3.62
2023-04-05T02:13:06.891Z,-3.66
2023-04-05T02:15:34.343Z,-3.73
2023-04-05T02:18:04.624Z,-3.71
2023-04-05T02:20:33.037Z,-3.70
2023-04-05T02:23:00.697Z,-3.61
2023-04-05T02:25:29.413Z,-3.62
2023-04-05T02:27:57.994Z,-3.60
2023-04-05T02:30:26.550Z,-3.62
2023-04-05T02:32:53.716Z,-3.68
2023-04-05T02:35:21.376Z,-3.71
2023-04-05T02:37:50.733Z,-3.73
2023-04-05T02:40:18.130Z,-3.74
2023-04-05T02:42:45.421Z,-3.63
2023-04-05T02:45:12.810Z,-3.23
2023-04-05T02:47:40.408Z,-2.72
2023-04-05T02:50:08.227Z,-2.38
2023-04-05T02:52:41.638Z,-2.35
2023-04-05T02:55:09.184Z,-2.25
2023-04-05T02:57:37.038Z,-2.30
2023-04-05T03:00:16.641Z,-2.15
2023-04-05T03:02:43.880Z,-1.93
2023-04-05T03:05:11.154Z,-1.78
2023-04-05T03:07:38.471Z,-1.74
2023-04-05T03:10:09.959Z,-1.70
2023-04-05T03:12:40.276Z,-1.63
2023-04-05T03:15:09.961Z,-1.69
2023-04-05T03:17:44.374Z,-1.83
2023-04-05T03:20:13.985Z,-1.74
2023-04-05T03:22:41.831Z,-1.57
2023-04-05T03:25:10.839Z,-1.62
2023-04-05T03:27:45.144Z,-1.63
2023-04-05T03:30:16.148Z,-1.66
2023-04-05T03:32:50.919Z,-1.48
2023-04-05T03:35:38.733Z,-1.26
2023-04-05T03:38:08.638Z,-1.49
2023-04-05T03:40:39.958Z,-1.27
2023-04-05T03:43:10.602Z,-1.13
2023-04-05T03:45:38.296Z,-1.04
2023-04-05T03:48:05.917Z,-0.98
2023-04-05T03:50:33.156Z,-1.01
2023-04-05T03:53:00.337Z,-1.03
2023-04-05T03:55:28.414Z,-0.96
2023-04-05T03:57:56.596Z,-1.00
2023-04-05T04:00:32.751Z,-1.14
2023-04-05T04:03:21.498Z,-1.08
2023-04-05T04:05:52.202Z,-1.11
2023-04-05T04:08:20.895Z,-1.26
2023-04-05T04:10:49.781Z,-1.43
2023-04-05T04:13:25.784Z,-1.41
2023-04-05T04:16:01.641Z,-1.35
2023-04-05T04:18:45.153Z,-1.28
2023-04-05T04:21:32.703Z,-1.24
2023-04-05T04:24:32.743Z,-1.24
2023-04-05T04:27:32.765Z,-1.35
2023-04-05T04:30:04.594Z,-1.20
2023-04-05T04:32:55.329Z,-1.26
2023-04-05T04:35:30.745Z,-1.51
2023-04-05T04:38:21.688Z,-1.56
2023-04-05T04:41:09.939Z,-1.39
2023-04-05T04:44:14.793Z,-1.10
2023-04-05T04:47:17.591Z,-1.23
2023-04-05T04:49:59.553Z,-0.99
2023-04-05T04:52:28.728Z,-0.87
2023-04-05T04:54:56.095Z,-1.01
2023-04-05T04:57:25.799Z,-1.34
2023-04-05T04:59:53.758Z,-1.46
2023-04-05T05:02:25.862Z,-1.55
2023-04-05T05:04:53.169Z,-1.02
2023-04-05T05:07:21.765Z,-0.95
2023-04-05T05:09:52.421Z,-0.75
2023-04-05T05:12:21.316Z,-0.63
2023-04-05T05:14:48.659Z,-0.20
2023-04-05T05:17:16.159Z,0.02
2023-04-05T05:19:43.473Z,0.04
2023-04-05T05:22:11.013Z,-0.05
2023-04-05T05:24:38.229Z,0.36
2023-04-05T05:27:05.922Z,0.76
2023-04-05T05:29:33.198Z,1.02
2023-04-05T05:32:00.571Z,1.23
2023-04-05T05:34:28.227Z,1.47
2023-04-05T05:36:57.966Z,1.45
2023-04-05T05:39:25.568Z,1.25
2023-04-05T05:41:52.919Z,1.28
2023-04-05T05:44:20.188Z,2.06
2023-04-05T05:46:47.460Z,3.64
2023-04-05T05:49:14.962Z,4.91
2023-04-05T05:51:42.197Z,5.68
2023-04-05T05:54:09.384Z,6.01
2023-04-05T05:56:36.653Z,6.52
2023-04-05T05:59:04.186Z,6.77
2023-04-05T06:01:34.471Z,6.23
2023-04-05T06:04:01.896Z,5.78
2023-04-05T06:06:30.115Z,5.71
2023-04-05T06:08:57.356Z,6.08
2023-04-05T06:11:25.402Z,7.41
2023-04-05T06:13:55.105Z,7.29
2023-04-05T06:16:22.889Z,7.78
2023-04-05T06:18:50.476Z,7.32
2023-04-05T06:21:17.904Z,6.55
2023-04-05T06:23:45.316Z,4.83
2023-04-05T06:26:23.230Z,4.36
2023-04-05T06:28:51.052Z,4.00
2023-04-05T06:31:26.507Z,4.47
2023-04-05T06:33:54.048Z,4.28
2023-04-05T06:36:21.290Z,4.02
2023-04-05T06:38:48.611Z,3.22
2023-04-05T06:41:16.058Z,3.16
2023-04-05T06:43:43.307Z,3.58
2023-04-05T06:46:12.619Z,3.99
2023-04-05T06:48:40.007Z,5.06
2023-04-05T06:51:07.295Z,4.84
2023-04-05T06:53:34.672Z,4.51
2023-04-05T06:56:02.510Z,4.11
2023-04-05T06:58:30.403Z,4.77
2023-04-05T07:00:57.785Z,7.15
2023-04-05T07:03:25.158Z,8.61
2023-04-05T07:05:54.627Z,9.41
2023-04-05T07:08:22.683Z,10.07
2023-04-05T07:10:51.260Z,9.12
2023-04-05T07:13:20.123Z,6.87
2023-04-05T07:15:47.667Z,5.41
2023-04-05T07:18:17.906Z,5.73
2023-04-05T07:20:51.045Z,5.93
2023-04-05T07:23:18.448Z,6.27
2023-04-05T07:25:46.037Z,6.01
2023-04-05T07:28:13.496Z,5.88
2023-04-05T07:30:41.237Z,7.35
2023-04-05T07:33:08.855Z,7.80
2023-04-05T07:35:36.810Z,10.32
2023-04-05T07:38:04.073Z,13.05
2023-04-05T07:40:31.308Z,14.17
2023-04-05T07:42:58.450Z,14.87
2023-04-05T07:45:25.974Z,16.32
2023-04-05T07:47:53.548Z,17.64
2023-04-05T07:50:20.857Z,16.05
2023-04-05T07:52:48.212Z,15.12
2023-04-05T07:55:17.215Z,16.06
2023-04-05T07:57:44.378Z,16.26
2023-04-05T08:00:13.589Z,17.33
2023-04-05T08:02:41.564Z,18.80
2023-04-05T08:05:09.431Z,17.27
2023-04-05T08:07:36.763Z,18.91
2023-04-05T08:10:04.979Z,19.10
2023-04-05T08:12:32.756Z,19.48
2023-04-05T08:15:00.120Z,19.60
2023-04-05T08:17:28.481Z,18.52
2023-04-05T08:19:56.158Z,16.93
2023-04-05T08:22:23.416Z,18.51
2023-04-05T08:24:50.747Z,18.66
2023-04-05T08:27:18.698Z,20.07
2023-04-05T08:29:45.953Z,21.72
2023-04-05T08:32:13.404Z,22.19
2023-04-05T08:34:40.643Z,20.61
2023-04-05T08:37:08.191Z,20.48
2023-04-05T08:39:36.109Z,20.58
2023-04-05T08:42:17.799Z,20.15
2023-04-05T08:44:48.420Z,21.11
2023-04-05T08:47:21.253Z,21.10
2023-04-05T08:49:49.021Z,21.24
2023-04-05T08:52:16.321Z,21.20
2023-04-05T08:54:43.635Z,22.99
2023-04-05T08:57:11.336Z,22.19
2023-04-05T08:59:41.105Z,23.47
2023-04-05T09:02:23.283Z,21.76
2023-04-05T09:04:51.543Z,22.12
2023-04-05T09:07:21.775Z,22.51
2023-04-05T09:09:53.744Z,18.40
2023-04-05T09:12:25.822Z,14.40
2023-04-05T09:14:53.977Z,15.64
2023-04-05T09:17:23.067Z,17.35
2023-04-05T09:19:50.624Z,18.04
2023-04-05T09:22:18.678Z,19.96
2023-04-05T09:24:47.281Z,20.63
2023-04-05T09:27:20.046Z,20.00
2023-04-05T09:30:22.854Z,18.08
2023-04-05T09:32:55.649Z,17.90
2023-04-05T09:35:27.261Z,15.64
2023-04-05T09:38:00.527Z,13.44
2023-04-05T09:40:45.906Z,11.49
2023-04-05T09:43:41.209Z,10.68
2023-04-05T09:46:31.621Z,9.92
2023-04-05T09:48:59.157Z,8.70
2023-04-05T09:51:37.653Z,8.81
2023-04-05T09:54:09.062Z,8.13
2023-04-05T09:56:39.534Z,9.03
2023-04-05T09:59:09.651Z,8.35
2023-04-05T10:01:40.988Z,7.24
2023-04-05T10:04:09.156Z,7.64
2023-04-05T10:06:40.693Z,10.13
2023-04-05T10:09:11.129Z,11.29
2023-04-05T10:11:39.564Z,8.59
2023-04-05T10:14:09.989Z,9.71
2023-04-05T10:16:51.569Z,11.10
2023-04-05T10:19:46.449Z,11.58
2023-04-05T10:22:23.008Z,14.58
2023-04-05T10:25:05.147Z,11.99
2023-04-05T10:27:48.120Z,9.76
2023-04-05T10:30:17.134Z,9.75
2023-04-05T10:33:16.668Z,8.85
2023-04-05T10:36:27.622Z,8.07
2023-04-05T10:39:17.769Z,8.13
2023-04-05T10:41:52.825Z,7.59
2023-04-05T10:44:26.102Z,8.55
2023-04-05T10:46:55.672Z,11.47
2023-04-05T10:49:42.829Z,11.61
2023-04-05T10:52:10.390Z,11.49
2023-04-05T10:54:38.601Z,10.82
2023-04-05T10:57:09.664Z,10.52
2023-04-05T10:59:46.656Z,11.54
2023-04-05T11:02:16.480Z,15.10
2023-04-05T11:04:44.512Z,15.21
2023-04-05T11:07:15.716Z,12.31
2023-04-05T11:10:03.496Z,13.58
2023-04-05T11:13:04.261Z,14.57
2023-04-05T11:15:33.238Z,15.86
2023-04-05T11:18:22.790Z,17.98
2023-04-05T11:20:55.804Z,17.81
2023-04-05T11:23:25.441Z,17.44
2023-04-05T11:25:55.886Z,17.44
2023-04-05T11:28:26.277Z,16.53
2023-04-05T11:30:59.057Z,14.34
2023-04-05T11:33:37.758Z,11.50
2023-04-05T11:36:05.944Z,9.96
2023-04-05T11:38:33.228Z,9.25
2023-04-05T11:41:17.888Z,11.14
2023-04-05T11:43:48.733Z,13.77
2023-04-05T11:46:16.063Z,13.74
2023-04-05T11:48:43.460Z,12.25
2023-04-05T11:51:11.114Z,10.57
2023-04-05T11:53:38.942Z,10.17
2023-04-05T11:56:15.970Z,10.01
2023-04-05T11:58:43.454Z,9.45
2023-04-05T12:01:10.723Z,8.60
2023-04-05T12:03:38.638Z,8.28
2023-04-05T12:06:08.256Z,8.91
2023-04-05T12:08:50.195Z,9.27
2023-04-05T12:11:31.386Z,10.52
2023-04-05T12:14:01.766Z,12.20
2023-04-05T12:16:29.971Z,11.41
2023-04-05T12:19:00.428Z,10.95
2023-04-05T12:21:28.603Z,10.15
2023-04-05T12:23:56.800Z,9.62
2023-04-05T12:26:24.287Z,9.13
2023-04-05T12:28:56.441Z,8.98
2023-04-05T12:31:45.239Z,8.72
2023-04-05T12:34:14.556Z,8.51
2023-04-05T12:36:48.918Z,8.50
2023-04-05T12:39:20.160Z,8.41
2023-04-05T12:41:59.256Z,8.42
2023-04-05T12:44:31.499Z,8.72
2023-04-05T12:47:10.442Z,8.54
2023-04-05T12:49:38.914Z,8.91
2023-04-05T12:52:06.276Z,9.34
2023-04-05T12:54:34.606Z,9.74
2023-04-05T12:57:09.111Z,9.21
2023-04-05T12:59:36.640Z,9.06
2023-04-05T13:02:03.920Z,8.18
2023-04-05T13:04:31.287Z,7.65
2023-04-05T13:06:58.472Z,7.50
2023-04-05T13:09:25.703Z,6.71
2023-04-05T13:11:52.924Z,7.02
2023-04-05T13:14:20.135Z,7.76
2023-04-05T13:16:47.328Z,7.46
2023-04-05T13:19:14.578Z,7.96
2023-04-05T13:21:42.233Z,8.13
2023-04-05T13:24:12.269Z,8.34
2023-04-05T13:26:40.088Z,8.16
2023-04-05T13:29:08.491Z,7.88
2023-04-05T13:31:35.824Z,7.13
2023-04-05T13:34:03.443Z,6.92
2023-04-05T13:36:31.189Z,7.02
2023-04-05T13:38:58.315Z,7.16
2023-04-05T13:41:26.220Z,7.99
2023-04-05T13:43:53.415Z,8.66
2023-04-05T13:46:20.912Z,8.94
2023-04-05T13:48:48.059Z,8.37
2023-04-05T13:51:15.523Z,8.44
2023-04-05T13:53:42.844Z,8.34
2023-04-05T13:56:10.102Z,8.05
2023-04-05T13:58:37.382Z,7.79
2023-04-05T14:01:04.606Z,7.71
2023-04-05T14:03:32.095Z,7.14
2023-04-05T14:05:59.508Z,6.88
2023-04-05T14:08:26.701Z,7.04
2023-04-05T14:10:54.113Z,7.09
2023-04-05T14:13:21.551Z,7.29
2023-04-05T14:15:49.647Z,7.54
2023-04-05T14:18:17.122Z,7.79
2023-04-05T14:20:44.504Z,7.99
2023-04-05T14:23:11.819Z,8.33
2023-04-05T14:25:39.670Z,8.22
2023-04-05T14:28:07.311Z,7.84
2023-04-05T14:30:34.736Z,6.78
2023-04-05T14:33:02.283Z,6.71
2023-04-05T14:35:29.614Z,6.54
2023-04-05T14:37:57.170Z,6.71
2023-04-05T14:40:24.506Z,6.78
2023-04-05T14:42:51.881Z,6.65
2023-04-05T14:45:19.281Z,6.35
2023-04-05T14:47:46.681Z,6.59
2023-04-05T14:50:14.152Z,6.75
2023-04-05T14:52:41.527Z,6.95
2023-04-05T14:55:09.535Z,6.79
2023-04-05T14:57:36.974Z,6.55
2023-04-05T15:00:04.903Z,6.70
2023-04-05T15:02:32.358Z,6.65
2023-04-05T15:05:02.750Z,6.72
2023-04-05T15:07:30.472Z,6.48
2023-04-05T15:09:57.867Z,6.17
2023-04-05T15:12:25.378Z,6.30
2023-04-05T15:14:54.452Z,6.50
2023-04-05T15:17:22.248Z,6.49
2023-04-05T15:19:49.746Z,6.69
2023-04-05T15:22:17.694Z,6.52
2023-04-05T15:24:45.040Z,6.23
2023-04-05T15:27:12.693Z,6.11
2023-04-05T15:29:40.331Z,6.01
2023-04-05T15:32:07.716Z,5.99
2023-04-05T15:34:35.078Z,6.16
2023-04-05T15:37:02.343Z,6.04
2023-04-05T15:39:29.794Z,5.91
2023-04-05T15:41:57.934Z,5.87
2023-04-05T15:44:25.809Z,5.84
2023-04-05T15:46:53.133Z,5.75
2023-04-05T15:49:20.620Z,5.74
2023-04-05T15:51:48.241Z,5.93
2023-04-05T15:54:18.946Z,5.82
2023-04-05T15:56:46.789Z,5.87
2023-04-05T15:59:14.683Z,5.89
2023-04-05T16:01:42.220Z,5.84
2023-04-05T16:04:09.911Z,5.88
2023-04-05T16:06:37.550Z,5.70
2023-04-05T16:09:05.242Z,5.50
2023-04-05T16:11:32.613Z,5.39
2023-04-05T16:14:00.726Z,5.36
2023-04-05T16:16:38.518Z,5.14
2023-04-05T16:19:13.814Z,5.38
2023-04-05T16:21:42.176Z,5.47
2023-04-05T16:24:09.596Z,5.53
2023-04-05T16:26:36.964Z,5.54
2023-04-05T16:29:04.644Z,5.49
2023-04-05T16:31:33.252Z,5.35
2023-04-05T16:34:00.553Z,5.62
2023-04-05T16:36:27.933Z,5.60
2023-04-05T16:38:55.243Z,5.59
2023-04-05T16:41:22.603Z,5.45
2023-04-05T16:43:51.304Z,5.66
2023-04-05T16:46:18.726Z,5.65
2023-04-05T16:48:46.311Z,5.50
2023-04-05T16:51:15.766Z,5.45
2023-04-05T16:53:43.126Z,5.38
2023-04-05T16:56:10.871Z,5.29
2023-04-05T16:58:38.819Z,5.20
2023-04-05T17:01:06.454Z,5.11
2023-04-05T17:03:34.002Z,5.30
2023-04-05T17:06:01.902Z,5.31
2023-04-05T17:08:29.226Z,5.12
2023-04-05T17:10:56.588Z,5.04
2023-04-05T17:13:24.169Z,5.01
2023-04-05T17:15:52.274Z,4.87
2023-04-05T17:18:20.075Z,4.70
2023-04-05T17:20:47.462Z,4.58
2023-04-05T17:23:15.004Z,4.39
2023-04-05T17:25:42.559Z,4.39
2023-04-05T17:28:10.035Z,4.23
2023-04-05T17:30:37.854Z,4.18
2023-04-05T17:33:05.325Z,4.05
2023-04-05T17:35:33.000Z,4.04
2023-04-05T17:38:03.302Z,4.01
2023-04-05T17:40:31.243Z,3.93
2023-04-05T17:42:58.652Z,3.76
2023-04-05T17:45:26.190Z,3.89
2023-04-05T17:47:53.751Z,3.89
2023-04-05T17:50:22.190Z,3.88
2023-04-05T17:52:51.205Z,3.85
2023-04-05T17:55:18.843Z,3.82
2023-04-05T17:57:46.573Z,3.75
2023-04-05T18:00:15.040Z,3.36
2023-04-05T18:02:42.509Z,3.41
2023-04-05T18:05:10.362Z,3.47
2023-04-05T18:07:38.814Z,3.29
2023-04-05T18:10:07.395Z,3.25
2023-04-05T18:12:34.939Z,3.20
2023-04-05T18:15:02.420Z,3.19
2023-04-05T18:17:29.962Z,3.14
2023-04-05T18:19:57.563Z,3.07
2023-04-05T18:22:25.005Z,3.01
2023-04-05T18:24:52.354Z,2.89
2023-04-05T18:27:19.642Z,2.69
2023-04-05T18:29:48.677Z,2.64
2023-04-05T18:32:16.375Z,2.55
2023-04-05T18:34:43.838Z,2.55
2023-04-05T18:37:11.694Z,2.51
2023-04-05T18:39:39.188Z,2.31
2023-04-05T18:42:06.895Z,2.34
2023-04-05T18:44:34.482Z,2.36
2023-04-05T18:47:02.245Z,2.29
2023-04-05T18:49:29.603Z,2.26
2023-04-05T18:51:57.052Z,2.10
2023-04-05T18:54:24.661Z,2.02
2023-04-05T18:56:52.047Z,2.05
2023-04-05T18:59:20.064Z,1.96
2023-04-05T19:01:47.531Z,2.07
2023-04-05T19:04:16.337Z,2.01
2023-04-05T19:06:44.011Z,1.96
2023-04-05T19:09:12.060Z,1.84
2023-04-05T19:11:39.451Z,1.89
2023-04-05T19:14:06.797Z,1.93
2023-04-05T19:16:34.422Z,1.90
2023-04-05T19:19:03.838Z,2.01
2023-04-05T19:21:31.290Z,1.95
2023-04-05T19:23:58.861Z,2.02
2023-04-05T19:26:26.325Z,1.97
2023-04-05T19:28:53.756Z,1.89
2023-04-05T19:31:21.234Z,1.71
2023-04-05T19:33:50.209Z,1.78
2023-04-05T19:36:17.636Z,1.69
2023-04-05T19:38:44.994Z,1.73
2023-04-05T19:41:12.421Z,1.72
2023-04-05T19:43:41.361Z,1.67
2023-04-05T19:46:10.858Z,1.81
2023-04-05T19:48:45.016Z,1.80
2023-04-05T19:51:14.856Z,1.65
2023-04-05T19:53:51.775Z,1.67
2023-04-05T19:56:22.032Z,1.71
2023-04-05T19:58:59.073Z,1.66
2023-04-05T20:01:34.482Z,1.66
2023-04-05T20:04:13.398Z,1.67
2023-04-05T20:06:55.774Z,1.69
2023-04-05T20:09:29.814Z,1.63
2023-04-05T20:11:59.426Z,1.66
2023-04-05T20:14:49.072Z,1.58
2023-04-05T20:17:18.821Z,1.65
2023-04-05T20:20:01.000Z,1.63
2023-04-05T20:22:29.266Z,1.53
2023-04-05T20:24:56.703Z,1.35
2023-04-05T20:27:24.171Z,1.35
2023-04-05T20:29:52.569Z,1.34
2023-04-05T20:32:27.968Z,1.31
2023-04-05T20:34:55.451Z,1.28
2023-04-05T20:37:22.755Z,1.18
2023-04-05T20:39:50.614Z,1.11
2023-04-05T20:42:17.898Z,0.93
2023-04-05T20:44:46.698Z,0.86
2023-04-05T20:47:14.343Z,0.81
2023-04-05T20:49:42.058Z,0.78
2023-04-05T20:52:11.098Z,0.74
2023-04-05T20:54:38.386Z,0.73
2023-04-05T20:57:05.788Z,0.71
2023-04-05T20:59:33.440Z,0.69
2023-04-05T21:02:01.259Z,0.72
2023-04-05T21:04:30.138Z,0.67
2023-04-05T21:06:58.194Z,0.57
2023-04-05T21:09:25.588Z,0.57
2023-04-05T21:11:53.007Z,0.52
2023-04-05T21:14:20.406Z,0.55
2023-04-05T21:16:47.797Z,0.47
2023-04-05T21:19:15.145Z,0.51
2023-04-05T21:21:42.541Z,0.58
2023-04-05T21:24:10.010Z,0.54
2023-04-05T21:26:37.345Z,0.58
2023-04-05T21:29:06.355Z,0.58
2023-04-05T21:31:33.877Z,0.60
2023-04-05T21:34:01.279Z,0.56
2023-04-05T21:36:29.323Z,0.51
2023-04-05T21:38:56.684Z,0.53
2023-04-05T21:41:24.103Z,0.55
2023-04-05T21:43:51.498Z,0.55
2023-04-05T21:46:20.601Z,0.55
2023-04-05T21:48:48.059Z,0.58
2023-04-05T21:51:15.416Z,0.57
2023-04-05T21:53:42.721Z,0.60
2023-04-05T21:56:10.034Z,0.61
2023-04-05T21:58:37.456Z,0.65
2023-04-05T22:01:04.964Z,0.67
2023-04-05T22:03:32.356Z,0.67
2023-04-05T22:06:01.967Z,0.64
2023-04-05T22:08:29.382Z,0.62
2023-04-05T22:10:57.002Z,0.58
2023-04-05T22:13:24.284Z,0.59
2023-04-05T22:15:51.830Z,0.62
2023-04-05T22:18:19.113Z,0.58
2023-04-05T22:20:46.501Z,0.60
2023-04-05T22:23:13.786Z,0.52
2023-04-05T22:25:41.062Z,0.23
2023-04-05T22:28:08.907Z,-0.39
2023-04-05T22:30:43.624Z,-0.64
2023-04-05T22:33:15.378Z,-0.76
2023-04-05T22:35:42.771Z,-0.74
2023-04-05T22:38:10.434Z,-0.79
2023-04-05T22:40:37.841Z,-0.75
2023-04-05T22:43:05.112Z,-0.75
2023-04-05T22:45:32.544Z,-0.73
2023-04-05T22:48:00.084Z,-0.74
2023-04-05T22:50:27.432Z,-0.78
2023-04-05T22:52:54.655Z,-1.00
2023-04-05T22:55:22.129Z,-1.00
2023-04-05T22:57:49.944Z,-0.99
2023-04-05T23:00:17.940Z,-0.89
2023-04-05T23:02:45.496Z,-0.88
2023-04-05T23:05:13.252Z,-0.86
2023-04-05T23:07:40.629Z,-0.73
2023-04-05T23:10:08.512Z,-0.68
2023-04-05T23:12:36.256Z,-0.65
2023-04-05T23:15:03.893Z,-0.68
2023-04-05T23:17:31.248Z,-0.67
2023-04-05T23:19:58.703Z,-0.99
2023-04-05T23:22:26.541Z,-0.80
2023-04-05T23:24:53.838Z,-0.63
2023-04-05T23:27:21.722Z,-0.80
2023-04-05T23:29:49.127Z,-0.84
2023-04-05T23:32:16.480Z,-0.65
2023-04-05T23:34:43.887Z,-0.42
2023-04-05T23:37:11.617Z,-0.63
2023-04-05T23:39:38.962Z,-0.61
2023-04-05T23:42:06.559Z,-0.75
2023-04-05T23:44:33.992Z,-0.83
2023-04-05T23:47:01.424Z,-0.83
2023-04-05T23:49:29.004Z,-0.84
2023-04-05T23:51:56.381Z,-0.81
2023-04-05T23:54:23.908Z,-0.56
2023-04-05T23:56:51.616Z,-0.61
2023-04-05T23:59:18.993Z,-0.65
